Time;durP1;ratioP1;P1;durP2;ratioP2;P2;SDS_P1;SDS_P2;PMS_P1;PMS_P2;Temp;Humidity;BMP_temperature;BMP_pressure;BME280_temperature;BME280_humidity;BME280_pressure;Samples;Min_cycle;Max_cycle;Signal;HPM_P1;HPM_P2
2022/05/03 00:00:07;;;;;;;8.98;8.25;;;9.60;99.90;;;;;;6243015;23;20157;-69
2022/05/03 00:02:45;;;;;;;8.60;7.90;;;9.70;99.90;;;;;;6242678;23;20306;-68
2022/05/03 00:05:20;;;;;;;10.45;9.25;;;9.70;99.90;;;;;;6244013;23;20598;-69
2022/05/03 00:07:54;;;;;;;10.20;8.95;;;9.70;99.90;;;;;;6244737;23;20196;-69
2022/05/03 00:10:32;;;;;;;8.80;7.95;;;9.60;99.90;;;;;;6243637;23;20180;-68
2022/05/03 00:13:03;;;;;;;9.52;7.38;;;9.60;99.90;;;;;;6243483;23;20161;-67
2022/05/03 00:15:32;;;;;;;8.85;8.05;;;9.50;99.90;;;;;;6243620;23;20172;-69
2022/05/03 00:18:00;;;;;;;9.63;8.63;;;9.50;99.90;;;;;;6252958;23;20242;-69
2022/05/03 00:20:28;;;;;;;8.82;7.75;;;9.40;99.90;;;;;;6243445;23;20176;-69
2022/05/03 00:22:55;;;;;;;8.73;7.85;;;9.40;99.90;;;;;;6243655;23;20199;-69
2022/05/03 00:25:22;;;;;;;8.90;8.10;;;9.40;99.90;;;;;;6243441;23;20183;-69
2022/05/03 00:27:52;;;;;;;9.27;8.38;;;9.40;99.90;;;;;;6243559;23;20197;-69
2022/05/03 00:30:18;;;;;;;7.93;7.22;;;9.30;99.90;;;;;;6242726;23;20176;-69
2022/05/03 00:32:47;;;;;;;9.40;8.48;;;9.30;99.90;;;;;;6243566;23;20176;-69
2022/05/03 00:35:15;;;;;;;10.25;8.73;;;9.30;99.90;;;;;;6243554;23;20180;-69
2022/05/03 00:37:44;;;;;;;13.02;8.85;;;9.20;99.90;;;;;;6243638;23;20192;-68
2022/05/03 00:40:11;;;;;;;8.50;7.70;;;9.20;99.90;;;;;;6242919;23;20176;-68
2022/05/03 00:42:47;;;;;;;9.38;8.30;;;9.10;99.90;;;;;;6243145;23;20181;-69
2022/05/03 00:45:20;;;;;;;9.73;8.73;;;9.10;99.90;;;;;;6243536;23;20246;-69
2022/05/03 00:47:52;;;;;;;9.45;7.95;;;9.10;99.90;;;;;;6242635;23;20196;-68
2022/05/03 00:50:36;;;;;;;9.82;8.75;;;9.10;99.90;;;;;;6242770;23;20157;-68
2022/05/03 00:53:10;;;;;;;9.55;8.55;;;9.10;99.90;;;;;;6243117;22;20184;-69
2022/05/03 00:56:16;;;;;;;10.55;8.48;;;9.00;99.90;;;;;;6243270;23;20243;-67
2022/05/03 00:59:02;;;;;;;10.80;8.15;;;9.00;99.90;;;;;;6242302;23;20199;-69
2022/05/03 01:01:40;;;;;;;8.50;7.60;;;9.00;99.90;;;;;;6243178;23;20160;-69
2022/05/03 01:04:14;;;;;;;8.73;7.82;;;9.00;99.90;;;;;;6243142;23;20162;-69
2022/05/03 01:07:04;;;;;;;9.15;8.35;;;9.00;99.90;;;;;;6243045;23;20163;-69
2022/05/03 01:09:40;;;;;;;9.05;8.15;;;8.90;99.90;;;;;;6242330;23;20157;-68
2022/05/03 01:12:20;;;;;;;10.00;9.00;;;8.90;99.90;;;;;;6243019;23;20637;-69
2022/05/03 01:15:06;;;;;;;8.70;7.90;;;8.90;99.90;;;;;;6243143;23;20161;-68
2022/05/03 01:17:41;;;;;;;9.55;8.65;;;8.80;99.90;;;;;;6242861;23;20196;-69
2022/05/03 01:20:10;;;;;;;10.05;9.02;;;8.80;99.90;;;;;;6242758;23;20163;-69
2022/05/03 01:23:03;;;;;;;9.70;8.65;;;8.80;99.90;;;;;;6243223;23;20629;-69
2022/05/03 01:25:57;;;;;;;10.05;9.10;;;8.80;99.90;;;;;;6243472;23;20157;-69
2022/05/03 01:28:31;;;;;;;10.50;9.40;;;8.80;99.90;;;;;;6242500;23;20197;-68
2022/05/03 01:31:04;;;;;;;9.32;8.43;;;8.70;99.90;;;;;;6245012;23;20644;-68
2022/05/03 01:33:33;;;;;;;8.75;7.95;;;8.70;99.90;;;;;;6245365;23;20162;-69
2022/05/03 01:36:01;;;;;;;9.85;8.95;;;8.70;99.90;;;;;;6254764;23;20222;-68
2022/05/03 01:38:48;;;;;;;9.10;8.30;;;8.70;99.90;;;;;;6244065;23;20196;-68
2022/05/03 01:41:28;;;;;;;9.93;9.00;;;8.60;99.90;;;;;;6244790;23;20157;-69
2022/05/03 01:44:10;;;;;;;9.98;9.02;;;8.60;99.90;;;;;;6245004;23;20168;-68
2022/05/03 01:46:38;;;;;;;9.38;8.38;;;8.50;99.90;;;;;;6244721;23;20167;-69
2022/05/03 01:52:04;;;;;;;10.43;9.38;;;8.40;99.90;;;;;;6244303;22;20521;-69
2022/05/03 01:55:18;;;;;;;9.60;8.70;;;8.40;99.90;;;;;;6244793;23;20156;-69
2022/05/03 01:57:59;;;;;;;10.88;9.55;;;8.30;99.90;;;;;;6233877;23;20196;-69
2022/05/03 02:00:27;;;;;;;10.15;9.15;;;8.30;99.90;;;;;;6244485;23;20161;-69
2022/05/03 02:03:02;;;;;;;10.07;9.07;;;8.30;99.90;;;;;;6244648;23;20168;-69
2022/05/03 02:05:45;;;;;;;11.40;10.30;;;8.20;99.90;;;;;;6244189;23;20175;-68
2022/05/03 02:08:18;;;;;;;11.00;10.10;;;8.20;99.90;;;;;;6243431;23;20688;-69
2022/05/03 02:11:02;;;;;;;11.90;10.75;;;8.20;99.90;;;;;;6244702;23;20167;-68
2022/05/03 02:16:45;;;;;;;11.07;9.98;;;8.10;99.90;;;;;;6244316;23;20160;-69
2022/05/03 02:19:34;;;;;;;10.95;9.85;;;8.10;99.90;;;;;;6243809;23;20226;-69
2022/05/03 02:22:16;;;;;;;11.48;10.43;;;8.00;99.90;;;;;;6244658;23;20730;-69
2022/05/03 02:24:51;;;;;;;11.90;10.80;;;8.00;99.90;;;;;;6244484;23;20476;-69
2022/05/03 02:27:20;;;;;;;11.50;10.23;;;8.00;99.90;;;;;;6244315;23;20243;-69
2022/05/03 02:29:50;;;;;;;11.57;10.48;;;8.00;99.90;;;;;;6243760;23;20173;-69
2022/05/03 02:32:28;;;;;;;11.70;10.50;;;8.00;99.90;;;;;;6244047;23;20192;-69
2022/05/03 02:35:03;;;;;;;11.98;10.77;;;8.00;99.90;;;;;;6244348;23;20164;-68
2022/05/03 02:37:37;;;;;;;12.80;11.60;;;8.00;99.90;;;;;;6243976;23;20734;-69
2022/05/03 02:40:08;;;;;;;11.60;10.40;;;7.90;99.90;;;;;;6243586;23;20165;-69
2022/05/03 02:42:35;;;;;;;12.40;11.18;;;8.00;99.90;;;;;;6244265;23;20176;-67
2022/05/03 02:45:04;;;;;;;12.30;11.05;;;8.00;99.90;;;;;;6244306;23;20180;-69
2022/05/03 02:47:40;;;;;;;12.45;11.15;;;8.00;99.90;;;;;;6243885;23;20200;-69
2022/05/03 02:50:10;;;;;;;13.10;11.40;;;8.00;99.90;;;;;;6243689;23;20167;-68
2022/05/03 02:55:11;;;;;;;13.85;11.57;;;7.90;99.90;;;;;;6243492;23;20778;-70
2022/05/03 02:57:46;;;;;;;11.75;10.55;;;7.90;99.90;;;;;;6244729;23;20527;-70
2022/05/03 03:03:18;;;;;;;12.77;11.48;;;7.90;99.90;;;;;;6244030;23;20664;-70
2022/05/03 03:05:52;;;;;;;13.50;12.13;;;7.90;99.90;;;;;;6239447;23;20172;-69
2022/05/03 03:08:20;;;;;;;13.38;12.02;;;7.90;99.90;;;;;;6243290;23;20546;-70
2022/05/03 03:10:52;;;;;;;13.77;11.95;;;7.90;99.90;;;;;;6244042;23;20259;-70
2022/05/03 03:13:32;;;;;;;13.93;12.52;;;7.90;99.90;;;;;;6244157;23;20160;-70
2022/05/03 03:15:59;;;;;;;14.82;13.27;;;7.90;99.90;;;;;;6244326;23;20161;-69
2022/05/03 03:18:30;;;;;;;15.38;11.93;;;7.80;99.90;;;;;;6243054;23;20203;-70
2022/05/03 03:20:59;;;;;;;13.35;11.82;;;7.80;99.90;;;;;;6244066;23;20568;-69
2022/05/03 03:23:28;;;;;;;13.80;12.30;;;7.70;99.90;;;;;;6243779;23;20176;-70
2022/05/03 03:25:55;;;;;;;14.18;12.48;;;7.80;99.90;;;;;;6243898;23;20226;-69
2022/05/03 03:28:23;;;;;;;14.27;12.65;;;7.80;99.90;;;;;;6243007;23;20228;-69
2022/05/03 03:30:51;;;;;;;14.45;12.90;;;7.70;99.90;;;;;;6244049;23;20195;-69
2022/05/03 03:33:20;;;;;;;15.05;12.73;;;7.70;99.90;;;;;;6243980;23;20534;-70
2022/05/03 03:35:48;;;;;;;15.15;13.52;;;7.70;99.90;;;;;;6242882;23;20181;-69
2022/05/03 03:38:17;;;;;;;16.55;14.85;;;7.70;99.90;;;;;;6243221;23;20192;-68
2022/05/03 03:40:46;;;;;;;17.98;14.85;;;7.70;99.90;;;;;;6243868;23;20495;-68
2022/05/03 03:43:13;;;;;;;16.30;14.60;;;7.60;99.90;;;;;;6243916;23;20731;-68
2022/05/03 03:45:41;;;;;;;15.50;13.80;;;7.70;99.90;;;;;;6243785;23;20506;-69
2022/05/03 03:48:09;;;;;;;16.88;13.35;;;7.60;99.90;;;;;;6242838;23;20222;-69
2022/05/03 03:50:37;;;;;;;17.75;14.30;;;7.60;99.90;;;;;;6243560;23;20480;-69
2022/05/03 03:53:04;;;;;;;15.65;13.95;;;7.60;99.90;;;;;;6248614;22;20242;-69
2022/05/03 03:55:34;;;;;;;16.30;14.00;;;7.50;99.90;;;;;;6274262;22;20164;-69
2022/05/03 03:58:01;;;;;;;17.58;13.90;;;7.50;99.90;;;;;;6273061;22;20222;-69
2022/05/03 04:00:28;;;;;;;16.73;13.63;;;7.50;99.90;;;;;;6273370;22;20238;-69
2022/05/03 04:02:56;;;;;;;15.25;13.65;;;7.50;99.90;;;;;;6274351;22;20168;-70
2022/05/03 04:05:24;;;;;;;15.38;13.75;;;7.50;99.90;;;;;;6274410;22;20229;-69
2022/05/03 04:07:52;;;;;;;15.13;13.07;;;7.50;99.90;;;;;;6272971;22;20210;-69
2022/05/03 04:10:19;;;;;;;15.52;13.95;;;7.50;99.90;;;;;;6272390;22;20183;-69
2022/05/03 04:12:48;;;;;;;15.45;13.90;;;7.40;99.90;;;;;;6273421;22;20192;-69
2022/05/03 04:15:15;;;;;;;17.40;15.60;;;7.40;99.90;;;;;;6271663;22;20411;-68
2022/05/03 04:17:42;;;;;;;15.45;13.85;;;7.40;99.90;;;;;;6272429;22;20200;-68
2022/05/03 04:20:10;;;;;;;16.52;14.80;;;7.50;99.90;;;;;;6272521;22;20274;-69
2022/05/03 04:22:37;;;;;;;15.13;13.55;;;7.50;99.90;;;;;;6272634;22;20174;-68
2022/05/03 04:25:05;;;;;;;14.95;13.40;;;7.40;99.90;;;;;;6272924;22;20673;-69
2022/05/03 04:27:32;;;;;;;14.50;13.00;;;7.50;99.90;;;;;;6272770;22;20660;-69
2022/05/03 04:30:01;;;;;;;14.85;13.38;;;7.50;99.90;;;;;;6271526;22;20176;-70
2022/05/03 04:32:29;;;;;;;15.45;13.85;;;7.60;99.90;;;;;;6270601;22;20192;-70
2022/05/03 04:34:56;;;;;;;14.63;13.13;;;7.50;99.90;;;;;;6271239;22;20175;-70
2022/05/03 04:37:23;;;;;;;16.02;13.98;;;7.50;99.90;;;;;;6272141;22;20543;-73
2022/05/03 04:39:50;;;;;;;15.10;13.60;;;7.60;99.90;;;;;;6273580;22;20176;-74
2022/05/03 04:42:17;;;;;;;16.40;12.60;;;7.50;99.90;;;;;;6273949;22;20171;-74
2022/05/03 04:44:44;;;;;;;15.32;13.27;;;7.60;99.90;;;;;;6273557;22;20632;-72
2022/05/03 04:47:12;;;;;;;16.05;13.23;;;7.70;99.90;;;;;;6273669;22;20179;-72
2022/05/03 04:49:39;;;;;;;15.25;13.60;;;7.70;99.90;;;;;;6273658;22;20171;-74
2022/05/03 04:52:06;;;;;;;16.05;14.25;;;7.80;99.90;;;;;;6273860;22;20192;-75
2022/05/03 04:54:33;;;;;;;15.05;13.00;;;7.90;99.90;;;;;;6273480;22;20187;-75
2022/05/03 04:57:03;;;;;;;15.50;13.55;;;8.00;99.90;;;;;;6273639;22;20176;-75
2022/05/03 04:59:30;;;;;;;14.77;13.27;;;8.10;99.90;;;;;;6272657;22;20664;-74
2022/05/03 05:01:57;;;;;;;15.05;13.48;;;8.20;99.90;;;;;;6274420;22;20179;-75
2022/05/03 05:04:25;;;;;;;14.95;13.48;;;8.30;99.90;;;;;;6274510;22;20172;-75
2022/05/03 05:06:51;;;;;;;15.23;13.73;;;8.30;99.90;;;;;;6275629;22;20637;-75
2022/05/03 05:09:18;;;;;;;15.18;13.50;;;8.40;99.90;;;;;;6275252;22;20192;-74
2022/05/03 05:11:45;;;;;;;15.77;14.18;;;8.50;99.90;;;;;;6275640;22;20182;-72
2022/05/03 05:14:11;;;;;;;17.55;15.15;;;8.60;99.90;;;;;;6276068;22;20183;-72
2022/05/03 05:16:38;;;;;;;14.32;12.82;;;8.70;99.90;;;;;;6275874;22;20659;-73
2022/05/03 05:19:05;;;;;;;15.18;13.57;;;8.80;99.90;;;;;;6275157;22;20526;-73
2022/05/03 05:21:33;;;;;;;16.13;14.43;;;8.90;99.90;;;;;;6275758;22;20180;-73
2022/05/03 05:24:00;;;;;;;14.27;12.90;;;8.90;99.90;;;;;;6276142;22;20179;-73
2022/05/03 05:26:27;;;;;;;14.40;12.80;;;9.00;99.90;;;;;;6275801;22;20215;-73
2022/05/03 05:28:54;;;;;;;13.50;11.88;;;9.10;99.90;;;;;;6274640;22;20247;-73
2022/05/03 05:31:20;;;;;;;14.18;12.63;;;9.20;99.90;;;;;;6275523;22;20229;-71
2022/05/03 05:33:47;;;;;;;13.93;12.32;;;9.30;99.90;;;;;;6275697;22;20196;-70
2022/05/03 05:36:14;;;;;;;14.05;12.45;;;9.50;99.90;;;;;;6275473;22;20179;-74
2022/05/03 05:38:42;;;;;;;14.27;12.93;;;9.60;99.90;;;;;;6274955;22;20199;-75
2022/05/03 05:41:13;;;;;;;14.27;12.82;;;9.70;99.90;;;;;;6275541;22;20183;-74
2022/05/03 05:43:41;;;;;;;14.88;13.38;;;9.90;99.90;;;;;;6275683;22;20172;-75
2022/05/03 05:46:08;;;;;;;13.75;12.45;;;10.10;99.90;;;;;;6275630;22;20179;-72
2022/05/03 05:48:35;;;;;;;13.52;12.25;;;10.30;99.90;;;;;;6274252;22;20312;-70
2022/05/03 05:51:02;;;;;;;15.20;13.63;;;10.50;99.90;;;;;;6275582;22;20183;-71
2022/05/03 05:53:33;;;;;;;15.05;13.55;;;10.70;99.90;;;;;;6275460;22;20299;-70
2022/05/03 05:56:07;;;;;;;17.67;14.30;;;10.90;99.90;;;;;;6270334;22;20421;-71
2022/05/03 05:58:34;;;;;;;17.80;15.68;;;11.20;99.90;;;;;;6271718;22;20254;-72
2022/05/03 06:01:01;;;;;;;14.75;13.25;;;11.40;99.90;;;;;;6274861;22;20251;-72
2022/05/03 06:03:28;;;;;;;13.80;12.40;;;11.70;99.90;;;;;;6274181;22;20309;-73
2022/05/03 06:05:56;;;;;;;14.20;12.80;;;11.90;99.90;;;;;;6274400;22;20194;-72
2022/05/03 06:08:23;;;;;;;15.73;13.75;;;12.00;99.90;;;;;;6273357;22;20230;-72
2022/05/03 06:10:51;;;;;;;13.90;12.50;;;12.20;99.90;;;;;;6274071;22;20178;-72
2022/05/03 06:13:19;;;;;;;14.40;12.20;;;12.40;99.90;;;;;;6273827;22;20511;-72
2022/05/03 06:15:48;;;;;;;14.30;12.88;;;12.50;99.90;;;;;;6273715;22;20414;-72
2022/05/03 06:18:15;;;;;;;15.93;12.47;;;12.80;99.90;;;;;;6272934;22;20219;-71
2022/05/03 06:20:42;;;;;;;14.30;12.80;;;12.90;99.90;;;;;;6274380;22;20418;-70
2022/05/03 06:23:09;;;;;;;13.03;11.83;;;13.10;99.90;;;;;;6274334;22;20421;-69
2022/05/03 06:25:36;;;;;;;15.97;12.20;;;13.20;99.90;;;;;;6274169;22;20414;-70
2022/05/03 06:28:02;;;;;;;14.00;12.60;;;13.40;99.90;;;;;;6273773;22;20450;-70
2022/05/03 06:30:32;;;;;;;12.83;11.67;;;13.50;99.90;;;;;;6273876;22;20418;-73
2022/05/03 06:32:58;;;;;;;13.87;12.47;;;13.70;99.90;;;;;;6273777;22;20492;-73
2022/05/03 06:35:26;;;;;;;12.63;11.47;;;13.80;99.90;;;;;;6274236;22;20814;-72
2022/05/03 06:37:53;;;;;;;13.23;11.87;;;14.00;99.90;;;;;;6274117;22;20434;-69
2022/05/03 06:40:20;;;;;;;13.53;12.23;;;14.10;99.90;;;;;;6272771;22;20899;-72
2022/05/03 06:42:46;;;;;;;14.23;12.90;;;14.30;99.90;;;;;;6274129;22;20729;-72
2022/05/03 06:45:13;;;;;;;13.40;12.03;;;14.50;99.90;;;;;;6273898;22;20418;-72
2022/05/03 06:47:42;;;;;;;12.13;10.93;;;14.50;99.90;;;;;;6273535;22;20438;-75
2022/05/03 06:50:10;;;;;;;12.37;11.17;;;14.70;99.90;;;;;;6283523;22;20464;-72
2022/05/03 06:52:37;;;;;;;12.60;11.40;;;14.90;99.90;;;;;;6273663;22;20438;-72
2022/05/03 06:55:05;;;;;;;10.20;9.27;;;15.10;99.90;;;;;;6272992;22;20426;-70
2022/05/03 06:57:32;;;;;;;7.70;7.00;;;15.20;99.90;;;;;;6273315;22;20442;-70
2022/05/03 07:00:01;;;;;;;7.50;6.70;;;15.30;99.90;;;;;;6273081;22;20509;-70
2022/05/03 07:02:30;;;;;;;7.90;7.20;;;15.40;99.90;;;;;;6272040;22;21207;-74
2022/05/03 07:04:59;;;;;;;8.40;7.60;;;15.40;99.90;;;;;;6272954;22;20419;-72
2022/05/03 07:07:26;;;;;;;9.43;8.53;;;15.40;99.90;;;;;;6273081;22;20761;-70
2022/05/03 07:09:53;;;;;;;9.80;8.90;;;15.50;99.90;;;;;;6272272;22;20414;-71
2022/05/03 07:12:20;;;;;;;9.53;8.73;;;15.50;99.90;;;;;;6273064;22;20418;-71
2022/05/03 07:14:46;;;;;;;9.67;8.77;;;15.70;99.90;;;;;;6273277;22;20418;-71
2022/05/03 07:22:45;;;;;;;9.20;8.30;;;15.90;99.90;;;;;;6272412;22;20476;-70
2022/05/03 07:22:47;;;;;;;11.17;10.27;;;16.40;99.90;;;;;;6272662;22;20386;-71
2022/05/03 07:25:16;;;;;;;9.90;9.10;;;16.50;99.90;;;;;;6272866;22;20415;-71
2022/05/03 07:27:45;;;;;;;9.13;8.23;;;16.60;99.90;;;;;;6272331;22;20477;-71
2022/05/03 07:30:13;;;;;;;9.67;8.77;;;16.80;99.90;;;;;;6272396;22;20476;-75
2022/05/03 07:32:39;;;;;;;8.83;7.80;;;17.00;99.90;;;;;;6273369;22;20760;-74
2022/05/03 07:35:08;;;;;;;12.13;9.00;;;17.30;99.90;;;;;;6272424;22;20418;-71
2022/05/03 07:37:35;;;;;;;11.83;9.57;;;17.60;99.90;;;;;;6272627;22;20438;-71
2022/05/03 07:40:02;;;;;;;11.87;10.67;;;17.80;99.90;;;;;;6272451;22;20682;-71
2022/05/03 07:42:29;;;;;;;10.43;9.43;;;18.00;99.90;;;;;;6272926;22;20418;-72
2022/05/03 07:44:56;;;;;;;11.47;9.27;;;18.20;99.90;;;;;;6273201;22;20425;-72
2022/05/03 07:47:22;;;;;;;10.13;9.13;;;18.30;99.90;;;;;;6271763;22;20748;-71
2022/05/03 07:49:49;;;;;;;11.10;9.20;;;18.50;99.90;;;;;;6270786;22;20419;-72
2022/05/03 07:52:17;;;;;;;9.93;9.03;;;18.40;99.90;;;;;;6271411;22;20464;-75
2022/05/03 07:54:44;;;;;;;10.00;9.10;;;18.20;99.90;;;;;;6270911;22;20449;-75
2022/05/03 07:57:12;;;;;;;10.80;7.83;;;18.20;99.90;;;;;;6271137;22;20418;-72
2022/05/03 07:59:39;;;;;;;8.73;7.93;;;18.30;99.90;;;;;;6271062;22;20829;-70
2022/05/03 08:02:05;;;;;;;9.40;8.60;;;18.20;99.90;;;;;;6271341;22;20999;-71
2022/05/03 08:04:33;;;;;;;9.93;9.03;;;18.10;99.90;;;;;;6271625;22;20418;-74
2022/05/03 08:07:00;;;;;;;9.97;8.73;;;17.90;99.90;;;;;;6271418;22;20442;-73
2022/05/03 08:09:28;;;;;;;9.37;8.43;;;17.90;99.90;;;;;;6270453;22;21072;-74
2022/05/03 08:11:55;;;;;;;9.10;8.40;;;17.90;99.90;;;;;;6271541;22;20426;-74
2022/05/03 08:14:22;;;;;;;8.50;7.70;;;17.80;99.90;;;;;;6270639;22;20935;-75
2022/05/03 08:16:49;;;;;;;8.87;8.07;;;17.80;99.90;;;;;;6269863;22;20418;-75
2022/05/03 08:19:16;;;;;;;8.83;8.13;;;17.80;99.90;;;;;;6270338;22;20438;-75
2022/05/03 08:21:42;;;;;;;8.30;7.50;;;17.80;99.90;;;;;;6271455;22;20426;-72
2022/05/03 08:24:09;;;;;;;8.63;7.83;;;17.90;99.90;;;;;;6271029;22;20419;-71
2022/05/03 08:26:37;;;;;;;8.97;8.20;;;18.10;99.90;;;;;;6271278;22;20422;-72
2022/05/03 08:29:04;;;;;;;8.63;7.83;;;18.20;99.90;;;;;;6270854;22;20438;-72
2022/05/03 08:31:31;;;;;;;8.77;8.00;;;18.20;99.90;;;;;;6270987;22;20944;-71
2022/05/03 08:34:01;;;;;;;8.30;7.60;;;18.20;99.90;;;;;;6271564;22;20445;-72
2022/05/03 08:36:28;;;;;;;8.37;7.67;;;18.30;99.90;;;;;;6271180;22;20887;-74
2022/05/03 08:44:25;;;;;;;8.50;7.47;;;18.50;99.90;;;;;;6270773;22;20386;-70
2022/05/03 08:46:55;;;;;;;9.00;8.20;;;18.80;99.90;;;;;;6271243;22;20418;-73
2022/05/03 08:49:24;;;;;;;8.40;7.70;;;19.10;99.90;;;;;;6270568;22;20439;-75
2022/05/03 08:51:53;;;;;;;8.90;7.77;;;19.70;99.90;;;;;;6271109;22;20428;-75
2022/05/03 08:54:21;;;;;;;7.63;6.90;;;20.30;99.90;;;;;;6271042;22;20446;-74
2022/05/03 08:56:49;;;;;;;9.97;7.43;;;20.70;99.90;;;;;;6271478;22;20484;-74
2022/05/03 08:59:16;;;;;;;8.03;7.43;;;21.20;99.00;;;;;;6270087;22;20565;-75
2022/05/03 09:01:43;;;;;;;7.70;6.90;;;21.60;98.70;;;;;;6271448;22;20422;-75
2022/05/03 09:04:10;;;;;;;7.47;6.67;;;22.10;98.60;;;;;;6271313;22;20415;-75
2022/05/03 09:06:48;;;;;;;6.83;6.23;;;22.30;96.60;;;;;;6270784;22;20965;-75
2022/05/03 09:09:16;;;;;;;6.33;5.80;;;22.50;96.30;;;;;;6269937;22;20495;-73
2022/05/03 09:11:45;;;;;;;6.30;5.80;;;22.60;96.60;;;;;;6271017;22;20762;-74
2022/05/03 09:14:15;;;;;;;6.63;6.03;;;23.00;95.40;;;;;;6270715;22;20442;-73
2022/05/03 09:16:49;;;;;;;6.67;6.07;;;23.40;94.90;;;;;;6271329;22;20421;-74
2022/05/03 09:19:24;;;;;;;8.20;6.33;;;23.80;94.50;;;;;;6269090;22;20438;-76
2022/05/03 09:24:58;;;;;;;5.73;5.23;;;24.40;93.70;;;;;;6198631;22;20460;-77
2022/05/03 09:27:26;;;;;;;6.10;5.60;;;24.90;93.10;;;;;;6270947;22;20426;-73
2022/05/03 09:30:12;;;;;;;4.10;3.80;;;24.70;91.60;;;;;;6268874;22;20418;-71
2022/05/03 09:32:41;;;;;;;5.60;5.10;;;24.60;90.70;;;;;;6270913;22;20402;-73
2022/05/03 09:35:31;;;;;;;5.53;5.03;;;24.70;91.20;;;;;;6270835;22;20450;-72
2022/05/03 09:37:57;;;;;;;5.80;5.30;;;25.00;91.30;;;;;;6269853;22;20441;-74
2022/05/03 09:40:25;;;;;;;4.87;4.47;;;25.60;91.10;;;;;;6270713;22;20422;-72
2022/05/03 09:42:53;;;;;;;4.67;4.27;;;26.30;90.70;;;;;;6270499;22;20414;-72
2022/05/03 09:45:24;;;;;;;4.57;4.20;;;26.80;88.50;;;;;;6270298;22;20798;-72
2022/05/03 09:47:53;;;;;;;4.43;4.03;;;26.60;86.10;;;;;;6271131;22;20442;-73
2022/05/03 09:50:27;;;;;;;4.60;4.20;;;26.60;88.30;;;;;;6270981;22;20476;-73
2022/05/03 09:52:54;;;;;;;4.47;4.13;;;26.60;86.40;;;;;;6272623;22;20401;-73
2022/05/03 09:55:29;;;;;;;2.87;2.67;;;27.00;87.50;;;;;;6272597;22;20875;-73
2022/05/03 09:57:57;;;;;;;3.30;3.10;;;27.20;80.70;;;;;;6270244;22;20950;-74
2022/05/03 10:00:25;;;;;;;5.40;3.30;;;26.70;82.50;;;;;;6272569;22;20418;-72
2022/05/03 10:02:54;;;;;;;3.57;3.27;;;27.00;83.80;;;;;;6273266;22;20418;-73
2022/05/03 10:05:21;;;;;;;3.23;2.93;;;27.10;81.30;;;;;;6272973;22;20410;-71
2022/05/03 10:07:49;;;;;;;3.07;2.87;;;27.50;82.00;;;;;;6272727;22;20438;-72
2022/05/03 10:10:16;;;;;;;3.30;3.00;;;27.70;82.30;;;;;;6272095;22;20414;-73
2022/05/03 10:12:44;;;;;;;3.00;2.80;;;27.80;80.50;;;;;;6273117;22;20423;-72
2022/05/03 10:15:12;;;;;;;3.17;2.80;;;28.20;79.20;;;;;;6271146;22;20510;-72
2022/05/03 10:20:38;;;;;;;3.50;3.20;;;28.30;77.40;;;;;;6272718;22;20997;-72
2022/05/03 10:23:05;;;;;;;3.90;3.30;;;28.40;80.20;;;;;;6272548;22;20450;-72
2022/05/03 10:25:51;;;;;;;3.10;2.90;;;28.50;76.10;;;;;;6272400;22;20415;-72
2022/05/03 10:28:18;;;;;;;3.43;3.13;;;28.70;76.60;;;;;;6271471;22;20443;-71
2022/05/03 10:31:13;;;;;;;3.73;3.40;;;28.60;79.00;;;;;;6272744;22;20612;-72
2022/05/03 10:33:42;;;;;;;4.40;4.00;;;28.90;77.60;;;;;;6272574;22;20430;-72
2022/05/03 10:36:47;;;;;;;4.03;3.73;;;29.30;78.20;;;;;;6272247;22;20818;-71
2022/05/03 10:39:32;;;;;;;4.20;3.80;;;29.20;78.50;;;;;;6271449;22;20455;-71
2022/05/03 10:42:02;;;;;;;3.60;3.30;;;29.20;75.90;;;;;;6266756;22;20456;-93
2022/05/03 10:44:57;;;;;;;4.50;4.20;;;29.50;75.70;;;;;;6276473;22;20409;-92
2022/05/03 10:47:41;;;;;;;3.33;3.03;;;29.40;75.30;;;;;;6276778;22;20754;-93
2022/05/03 10:50:29;;;;;;;4.20;3.90;;;29.20;76.30;;;;;;6287347;22;20427;-94
2022/05/03 10:53:25;;;;;;;4.57;4.20;;;28.90;74.10;;;;;;6276655;22;20445;-91
2022/05/03 10:56:40;;;;;;;4.53;4.13;;;29.30;75.30;;;;;;6288175;22;20458;-92
2022/05/03 10:59:10;;;;;;;3.87;3.47;;;29.80;75.10;;;;;;6288242;22;20469;-93
2022/05/03 11:02:08;;;;;;;4.40;4.00;;;29.40;74.50;;;;;;6285344;22;20894;-90
2022/05/03 11:04:36;;;;;;;4.13;3.80;;;29.00;73.50;;;;;;6275084;22;21004;-91
2022/05/03 11:07:05;;;;;;;4.30;3.90;;;29.20;74.30;;;;;;6276079;22;20423;-92
2022/05/03 11:09:56;;;;;;;4.10;3.80;;;29.40;74.70;;;;;;6276275;22;20425;-92
2022/05/03 11:12:51;;;;;;;4.33;3.93;;;30.10;74.70;;;;;;6286271;22;20452;-92
2022/05/03 11:15:18;;;;;;;4.03;3.63;;;30.30;74.00;;;;;;6287803;22;20416;-92
2022/05/03 11:17:52;;;;;;;3.80;3.50;;;30.40;71.20;;;;;;6286557;22;20485;-92
2022/05/03 11:20:33;;;;;;;4.27;3.97;;;30.10;72.80;;;;;;6287142;22;20990;-92
2022/05/03 11:23:03;;;;;;;3.70;3.40;;;30.10;73.10;;;;;;6287350;22;20437;-92
2022/05/03 11:28:19;;;;;;;4.27;3.97;;;29.90;71.50;;;;;;6279129;22;20420;-93
2022/05/03 11:30:46;;;;;;;3.80;3.50;;;30.30;72.30;;;;;;6279128;22;20421;-92
2022/05/03 11:36:18;;;;;;;4.80;3.83;;;29.90;72.70;;;;;;6273398;22;20512;-92
2022/05/03 11:38:56;;;;;;;4.00;3.70;;;29.90;70.70;;;;;;6286332;22;20434;-94
2022/05/03 11:41:23;;;;;;;4.00;3.70;;;30.20;70.30;;;;;;6286764;22;20422;-92
2022/05/03 11:43:53;;;;;;;3.90;3.60;;;30.40;71.70;;;;;;6275254;22;20444;-92
2022/05/03 11:46:29;;;;;;;4.37;3.80;;;30.90;69.60;;;;;;6286194;22;20427;-92
2022/05/03 11:48:59;;;;;;;4.50;4.10;;;31.10;69.90;;;;;;6305535;22;20454;-95
2022/05/03 11:57:34;;;;;;;4.53;4.10;;;31.30;67.10;;;;;;6285858;22;20405;-91
2022/05/03 12:00:02;;;;;;;4.33;3.93;;;30.40;69.00;;;;;;6284783;22;20449;-91
2022/05/03 12:02:33;;;;;;;4.30;4.00;;;29.50;71.00;;;;;;6286099;22;20442;-91
2022/05/03 12:05:12;;;;;;;5.10;4.60;;;28.50;71.20;;;;;;6285957;22;20916;-91
2022/05/03 12:07:39;;;;;;;4.63;4.10;;;27.70;71.70;;;;;;6286047;22;20763;-90
2022/05/03 12:10:21;;;;;;;4.50;4.10;;;27.20;75.20;;;;;;6276855;22;20427;-92
2022/05/03 12:12:49;;;;;;;4.63;3.67;;;27.60;74.10;;;;;;6278264;22;20438;-93
2022/05/03 12:15:21;;;;;;;3.80;3.37;;;28.60;74.10;;;;;;6277633;22;20405;-92
2022/05/03 12:17:57;;;;;;;4.53;4.13;;;28.70;70.40;;;;;;6289410;22;20415;-92
2022/05/03 12:20:24;;;;;;;4.60;4.13;;;28.10;73.40;;;;;;6276294;22;20936;-91
2022/05/03 12:23:15;;;;;;;4.20;3.90;;;28.10;71.20;;;;;;6276718;22;20448;-94
2022/05/03 12:25:46;;;;;;;3.60;3.40;;;28.60;70.70;;;;;;6280769;22;20508;-92
2022/05/03 12:28:20;;;;;;;8.20;3.87;;;29.50;71.40;;;;;;6288110;22;20418;-92
2022/05/03 12:31:07;;;;;;;3.87;3.57;;;29.60;69.90;;;;;;6287098;22;20772;-95
2022/05/03 12:33:49;;;;;;;5.00;3.47;;;29.90;71.10;;;;;;6286279;22;20952;-92
2022/05/03 12:36:30;;;;;;;3.27;3.07;;;30.20;70.70;;;;;;6286422;22;20469;-92
2022/05/03 12:38:58;;;;;;;3.80;3.50;;;30.40;70.20;;;;;;6285524;22;20421;-93
2022/05/03 12:41:28;;;;;;;7.53;3.50;;;29.60;68.10;;;;;;6285593;22;20435;-91
2022/05/03 12:50:53;;;;;;;4.93;3.77;;;25.80;75.30;;;;;;6203193;22;20450;-73
2022/05/03 12:53:24;;;;;;;4.00;3.60;;;23.10;80.00;;;;;;6270775;22;20501;-71
2022/05/03 12:55:51;;;;;;;4.47;3.80;;;21.40;84.80;;;;;;6270597;22;20433;-73
2022/05/03 12:58:21;;;;;;;4.00;3.33;;;20.10;88.20;;;;;;6270734;22;20659;-75
2022/05/03 13:00:48;;;;;;;6.50;3.40;;;19.20;87.50;;;;;;6271306;22;20422;-71
2022/05/03 13:03:15;;;;;;;5.90;3.00;;;18.40;87.60;;;;;;6270772;22;20907;-74
2022/05/03 13:05:42;;;;;;;3.70;2.90;;;18.00;89.50;;;;;;6270833;22;20509;-71
2022/05/03 13:08:09;;;;;;;4.53;3.40;;;17.60;90.00;;;;;;6268857;22;20449;-71
2022/05/03 13:10:35;;;;;;;6.33;3.50;;;17.20;90.80;;;;;;6271186;22;20423;-69
2022/05/03 13:13:04;;;;;;;9.67;3.97;;;16.90;93.90;;;;;;6270692;22;20414;-72
2022/05/03 13:15:32;;;;;;;6.20;3.57;;;16.40;96.00;;;;;;6270502;22;20418;-71
2022/05/03 13:18:00;;;;;;;4.30;4.00;;;16.10;98.00;;;;;;6269571;22;20488;-71
2022/05/03 13:20:27;;;;;;;10.87;4.67;;;15.90;99.70;;;;;;6271303;22;20762;-69
2022/05/03 13:22:54;;;;;;;6.30;4.30;;;15.70;98.90;;;;;;6270254;22;20763;-68
2022/05/03 13:25:22;;;;;;;5.80;4.67;;;15.40;99.90;;;;;;6271238;22;20442;-69
2022/05/03 13:27:49;;;;;;;4.77;4.30;;;15.20;99.90;;;;;;6272298;22;20449;-69
2022/05/03 13:30:16;;;;;;;4.70;3.90;;;15.00;99.90;;;;;;6272110;22;20422;-69
2022/05/03 13:32:44;;;;;;;6.20;3.97;;;14.80;99.90;;;;;;6272792;22;21038;-70
2022/05/03 13:35:11;;;;;;;7.57;3.93;;;14.70;99.90;;;;;;6272481;22;20414;-68
2022/05/03 13:40:31;;;;;;;5.43;4.33;;;14.80;99.90;;;;;;6272039;22;20385;-71
2022/05/03 13:42:59;;;;;;;4.87;4.40;;;14.80;99.90;;;;;;6272725;22;20402;-70
2022/05/03 13:45:26;;;;;;;9.90;4.80;;;14.70;99.90;;;;;;6271942;22;20414;-67
2022/05/03 13:47:54;;;;;;;7.80;4.83;;;14.70;99.90;;;;;;6272066;22;20442;-69
2022/05/03 13:50:21;;;;;;;4.83;4.40;;;14.60;99.90;;;;;;6271609;22;20436;-67